Time;durP1;ratioP1;P1;durP2;ratioP2;P2;SDS_P1;SDS_P2;PMS_P1;PMS_P2;Temp;Humidity;BMP_temperature;BMP_pressure;BME280_temperature;BME280_humidity;BME280_pressure;Samples;Min_cycle;Max_cycle;Signal;HPM_P1;HPM_P2
2021/09/25 00:01:22;;;;;;;12.30;9.68;;;19.00;79.30;;;;;;4857241;29;20044;-68
2021/09/25 00:03:48;;;;;;;14.20;10.60;;;19.00;79.50;;;;;;4855068;29;20253;-67
2021/09/25 00:06:13;;;;;;;10.80;9.43;;;19.00;79.00;;;;;;4856826;29;20048;-67
2021/09/25 00:08:39;;;;;;;10.85;9.20;;;19.00;79.40;;;;;;4854721;29;20917;-68
2021/09/25 00:11:05;;;;;;;11.90;9.77;;;19.00;79.60;;;;;;4856691;29;20044;-67
2021/09/25 00:13:31;;;;;;;15.15;11.27;;;19.00;79.40;;;;;;4855099;29;20048;-67
2021/09/25 00:15:57;;;;;;;14.82;10.07;;;19.10;78.80;;;;;;4855692;29;20037;-67
2021/09/25 00:18:23;;;;;;;14.15;10.27;;;19.10;78.50;;;;;;4854871;29;20056;-67
2021/09/25 00:20:49;;;;;;;17.73;10.80;;;19.10;78.60;;;;;;4854871;29;20041;-67
2021/09/25 00:23:15;;;;;;;14.70;9.75;;;19.10;78.60;;;;;;4868767;29;20713;-67
2021/09/25 00:25:40;;;;;;;14.15;10.35;;;19.00;78.70;;;;;;4856724;29;20037;-67
2021/09/25 00:28:06;;;;;;;12.68;9.45;;;19.10;78.80;;;;;;4852802;29;20761;-67
2021/09/25 00:30:33;;;;;;;12.65;9.75;;;19.10;78.90;;;;;;4859389;29;20853;-67
2021/09/25 00:32:58;;;;;;;14.38;9.82;;;19.10;78.90;;;;;;4852817;29;20041;-67
2021/09/25 00:35:24;;;;;;;12.35;9.95;;;19.10;78.60;;;;;;4857640;29;20944;-68
2021/09/25 00:37:50;;;;;;;16.38;10.43;;;19.10;78.80;;;;;;4855955;29;20068;-67
2021/09/25 00:40:17;;;;;;;15.20;9.70;;;19.10;78.70;;;;;;4851886;29;20855;-67
2021/09/25 00:42:44;;;;;;;20.20;11.25;;;19.10;78.80;;;;;;4855932;29;20025;-67
2021/09/25 00:45:12;;;;;;;11.77;9.52;;;19.10;78.50;;;;;;4853217;29;20037;-68
2021/09/25 00:47:38;;;;;;;13.52;10.15;;;19.10;78.60;;;;;;4868900;29;20044;-67
2021/09/25 00:50:06;;;;;;;13.90;9.90;;;19.00;78.50;;;;;;4856306;29;20040;-67
2021/09/25 00:52:32;;;;;;;10.57;8.77;;;19.10;78.50;;;;;;4854486;29;20045;-67
2021/09/25 00:54:58;;;;;;;12.77;10.00;;;19.00;79.00;;;;;;4855006;29;20037;-67
2021/09/25 00:57:24;;;;;;;12.57;9.27;;;19.10;78.50;;;;;;4860025;29;20084;-68
2021/09/25 00:59:51;;;;;;;15.20;11.02;;;19.10;78.60;;;;;;4854172;29;20057;-67
2021/09/25 01:02:17;;;;;;;14.30;9.30;;;19.10;78.20;;;;;;4854983;29;20033;-68
2021/09/25 01:04:47;;;;;;;12.50;8.95;;;19.00;78.90;;;;;;4856701;29;20039;-67
2021/09/25 01:07:14;;;;;;;11.90;8.75;;;19.00;79.10;;;;;;4858030;29;20844;-67
2021/09/25 01:09:40;;;;;;;12.68;9.27;;;19.10;79.10;;;;;;4854097;29;20059;-67
2021/09/25 01:12:07;;;;;;;11.05;9.15;;;19.10;79.00;;;;;;4855566;29;20041;-68
2021/09/25 01:14:32;;;;;;;12.80;8.82;;;19.10;79.10;;;;;;4852436;29;20086;-67
2021/09/25 01:17:10;;;;;;;14.85;9.93;;;19.00;79.00;;;;;;4855473;29;20420;-67
2021/09/25 01:19:37;;;;;;;11.80;9.25;;;19.10;78.60;;;;;;4855023;29;20047;-67
2021/09/25 01:22:03;;;;;;;12.05;10.45;;;19.10;78.80;;;;;;4855293;29;20029;-68
2021/09/25 01:24:29;;;;;;;11.68;9.40;;;19.10;78.30;;;;;;4856527;29;20041;-68
2021/09/25 01:26:55;;;;;;;10.43;8.57;;;19.10;78.50;;;;;;4855467;29;20040;-67
2021/09/25 01:29:22;;;;;;;12.57;9.63;;;19.10;78.80;;;;;;4854950;29;20041;-67
2021/09/25 01:31:47;;;;;;;13.07;9.88;;;19.10;78.60;;;;;;4856720;29;20783;-67
2021/09/25 01:34:13;;;;;;;11.80;9.18;;;19.10;78.50;;;;;;4855285;29;20121;-69
2021/09/25 01:36:39;;;;;;;10.25;8.60;;;19.10;78.30;;;;;;4855119;29;20073;-68
2021/09/25 01:39:05;;;;;;;11.70;9.20;;;19.10;78.80;;;;;;4870214;29;20482;-67
2021/09/25 01:41:30;;;;;;;13.38;9.07;;;19.10;78.90;;;;;;4855326;29;20035;-66
2021/09/25 01:43:56;;;;;;;14.43;10.00;;;19.10;78.80;;;;;;4856888;29;20610;-66
2021/09/25 01:46:22;;;;;;;12.35;8.65;;;19.10;79.30;;;;;;4857661;29;20045;-66
2021/09/25 01:48:48;;;;;;;18.05;10.73;;;19.10;78.60;;;;;;4853743;29;20125;-67
2021/09/25 01:51:13;;;;;;;15.75;9.20;;;19.10;78.70;;;;;;4855984;29;20036;-67
2021/09/25 01:53:40;;;;;;;12.18;9.05;;;19.10;78.50;;;;;;4855594;29;20119;-67
2021/09/25 01:56:12;;;;;;;9.32;8.20;;;19.10;78.70;;;;;;4855858;29;20112;-68
2021/09/25 01:58:39;;;;;;;12.50;9.10;;;19.10;78.50;;;;;;4854108;29;20052;-68
2021/09/25 02:01:06;;;;;;;11.73;9.20;;;19.10;78.60;;;;;;4857030;29;20409;-67
2021/09/25 02:03:35;;;;;;;13.02;8.20;;;19.10;78.50;;;;;;4868927;29;20430;-66
2021/09/25 02:06:11;;;;;;;12.60;8.60;;;19.10;78.20;;;;;;4853356;29;20076;-67
2021/09/25 02:08:38;;;;;;;;;;;19.10;78.60;;;;;;4856249;29;20089;-67
2021/09/25 02:11:05;;;;;;;14.30;8.95;;;19.10;78.40;;;;;;4854943;29;19995;-67
2021/09/25 02:13:32;;;;;;;10.55;8.23;;;19.10;78.30;;;;;;4862093;29;20041;-67
2021/09/25 02:15:58;;;;;;;14.13;9.27;;;19.10;78.20;;;;;;4854036;29;20044;-67
2021/09/25 02:18:26;;;;;;;12.48;8.48;;;19.10;78.30;;;;;;4854672;29;20033;-67
2021/09/25 02:20:52;;;;;;;9.80;7.57;;;19.10;79.20;;;;;;4855406;29;20049;-68
2021/09/25 02:23:18;;;;;;;12.70;8.05;;;19.10;78.70;;;;;;4854287;29;20128;-68
2021/09/25 02:25:43;;;;;;;13.40;9.57;;;19.10;78.70;;;;;;4861162;29;20116;-68
2021/09/25 02:28:09;;;;;;;10.65;8.07;;;19.10;78.90;;;;;;4857073;29;20225;-68
2021/09/25 02:30:35;;;;;;;14.48;7.85;;;19.10;78.40;;;;;;4859067;29;20638;-68
2021/09/25 02:33:01;;;;;;;10.85;8.25;;;19.10;78.70;;;;;;4860037;29;20726;-68
2021/09/25 02:35:27;;;;;;;9.00;7.47;;;19.00;78.50;;;;;;4860309;29;20041;-67
2021/09/25 02:37:53;;;;;;;10.00;8.07;;;19.10;78.70;;;;;;4864250;29;20055;-67
2021/09/25 02:40:20;;;;;;;10.15;7.85;;;19.10;78.50;;;;;;4858667;29;20041;-69
2021/09/25 02:42:46;;;;;;;12.95;8.40;;;19.00;78.60;;;;;;4857545;29;20053;-68
2021/09/25 02:45:14;;;;;;;11.57;8.30;;;19.00;78.60;;;;;;4859184;29;20056;-67
2021/09/25 02:47:41;;;;;;;10.88;7.85;;;19.00;78.70;;;;;;4857092;29;20055;-67
2021/09/25 02:50:09;;;;;;;11.40;8.07;;;19.00;78.60;;;;;;4858288;29;20577;-67
2021/09/25 02:52:35;;;;;;;10.60;7.28;;;19.00;78.70;;;;;;4859367;29;20112;-67
2021/09/25 02:55:01;;;;;;;10.18;7.70;;;19.00;78.60;;;;;;4856320;29;20041;-66
2021/09/25 02:57:26;;;;;;;13.10;8.18;;;19.00;78.60;;;;;;4859252;29;20041;-67
2021/09/25 02:59:52;;;;;;;12.65;8.82;;;19.00;78.70;;;;;;4859190;29;20045;-66
2021/09/25 03:02:18;;;;;;;10.50;8.32;;;19.00;78.40;;;;;;4860462;29;20037;-66
2021/09/25 03:04:44;;;;;;;11.07;7.97;;;19.00;78.70;;;;;;4857612;29;20132;-66
2021/09/25 03:07:10;;;;;;;11.30;7.97;;;19.00;78.60;;;;;;4857913;29;20075;-67
2021/09/25 03:09:36;;;;;;;11.45;8.18;;;19.00;78.50;;;;;;4855429;29;20094;-67
2021/09/25 03:12:02;;;;;;;12.55;7.28;;;19.00;78.50;;;;;;4857667;29;20988;-65
2021/09/25 03:14:28;;;;;;;11.43;8.13;;;19.00;78.60;;;;;;4856043;29;20072;-66
2021/09/25 03:16:54;;;;;;;14.05;8.27;;;19.00;78.80;;;;;;4861743;29;20049;-66
2021/09/25 03:19:20;;;;;;;11.98;8.40;;;19.00;78.50;;;;;;4862827;29;20112;-66
2021/09/25 03:21:45;;;;;;;12.35;8.07;;;19.00;78.60;;;;;;4859837;29;20085;-66
2021/09/25 03:24:11;;;;;;;8.95;7.63;;;18.90;78.60;;;;;;4859183;29;20037;-66
2021/09/25 03:26:37;;;;;;;12.23;8.10;;;18.90;78.80;;;;;;4859096;29;20039;-66
2021/09/25 03:29:03;;;;;;;11.50;7.00;;;18.80;78.80;;;;;;4859998;29;20076;-66
2021/09/25 03:31:29;;;;;;;10.27;7.60;;;18.80;78.90;;;;;;4858189;29;20132;-67
2021/09/25 03:33:54;;;;;;;8.88;6.80;;;18.80;79.10;;;;;;4856518;29;20778;-66
2021/09/25 03:36:21;;;;;;;11.18;7.72;;;18.90;79.20;;;;;;4857936;29;20418;-67
2021/09/25 03:38:47;;;;;;;11.57;7.88;;;18.90;79.00;;;;;;4856713;29;20045;-66
2021/09/25 03:41:12;;;;;;;9.93;7.07;;;18.90;79.00;;;;;;4856142;29;20034;-66
2021/09/25 03:43:38;;;;;;;7.75;5.93;;;18.90;79.20;;;;;;4857401;29;20037;-66
2021/09/25 03:46:03;;;;;;;10.90;6.97;;;18.80;79.40;;;;;;4857610;29;20147;-67
2021/09/25 03:48:29;;;;;;;11.35;7.38;;;18.90;79.50;;;;;;4855343;29;20071;-67
2021/09/25 03:50:55;;;;;;;11.32;6.38;;;18.90;79.20;;;;;;4857706;29;20029;-66
2021/09/25 03:53:21;;;;;;;13.25;6.70;;;18.80;79.50;;;;;;4855552;29;20770;-66
2021/09/25 03:55:47;;;;;;;10.35;7.25;;;18.90;79.50;;;;;;4857982;29;20240;-66
2021/09/25 03:58:13;;;;;;;10.65;6.15;;;18.90;79.00;;;;;;4857736;29;20056;-66
2021/09/25 04:00:42;;;;;;;11.75;7.25;;;18.90;79.20;;;;;;4859714;29;20068;-66
2021/09/25 04:03:12;;;;;;;7.60;6.40;;;18.90;79.10;;;;;;4858982;29;20049;-66
2021/09/25 04:05:39;;;;;;;10.82;7.15;;;18.90;79.40;;;;;;4855849;29;20033;-66
2021/09/25 04:08:05;;;;;;;13.98;7.78;;;18.90;79.10;;;;;;4868382;29;20041;-67
2021/09/25 04:10:32;;;;;;;14.15;7.85;;;18.90;79.10;;;;;;4860201;29;20124;-66
2021/09/25 04:12:58;;;;;;;9.00;6.82;;;18.90;79.10;;;;;;4856451;29;20129;-66
2021/09/25 04:15:25;;;;;;;10.32;6.95;;;18.80;79.30;;;;;;4867474;29;20037;-66
2021/09/25 04:17:51;;;;;;;9.55;6.65;;;18.80;79.50;;;;;;4857349;29;20778;-66
2021/09/25 04:20:17;;;;;;;9.65;7.22;;;18.90;79.80;;;;;;4858567;29;20047;-67
2021/09/25 04:22:42;;;;;;;8.77;6.60;;;18.80;79.70;;;;;;4857651;29;20120;-66
2021/09/25 04:25:08;;;;;;;12.93;6.43;;;18.90;80.00;;;;;;4858728;29;20852;-67
2021/09/25 04:27:34;;;;;;;8.45;6.72;;;18.90;80.20;;;;;;4859078;29;20140;-67
2021/09/25 04:30:03;;;;;;;8.98;6.35;;;18.90;80.30;;;;;;4861097;29;20036;-67
2021/09/25 04:32:30;;;;;;;8.73;6.68;;;18.90;80.50;;;;;;4856552;29;20085;-67
2021/09/25 04:34:56;;;;;;;9.38;6.60;;;18.90;80.70;;;;;;4858580;29;20120;-66
2021/09/25 04:37:22;;;;;;;10.73;6.82;;;18.90;80.60;;;;;;4855055;29;20048;-66
2021/09/25 04:39:48;;;;;;;10.18;7.55;;;18.80;80.90;;;;;;4856935;29;20033;-67
2021/09/25 04:42:14;;;;;;;10.05;7.97;;;18.80;80.40;;;;;;4856612;29;20489;-66
2021/09/25 04:44:40;;;;;;;9.93;7.90;;;18.80;80.70;;;;;;4858253;29;20507;-67
2021/09/25 04:47:06;;;;;;;14.95;8.10;;;18.70;81.10;;;;;;4864543;29;20136;-66
2021/09/25 04:49:31;;;;;;;12.95;7.75;;;18.70;81.30;;;;;;4859212;29;20043;-67
2021/09/25 04:51:57;;;;;;;9.38;7.28;;;18.60;81.90;;;;;;4855191;29;20798;-67
2021/09/25 04:54:23;;;;;;;13.15;8.85;;;18.60;82.20;;;;;;4875575;29;20834;-66
2021/09/25 04:56:48;;;;;;;13.13;8.70;;;18.70;82.20;;;;;;4861729;29;20048;-67
2021/09/25 04:59:14;;;;;;;11.23;8.27;;;18.70;82.60;;;;;;4864215;29;20637;-67
2021/09/25 05:01:40;;;;;;;10.68;7.75;;;18.60;82.40;;;;;;4859574;29;20139;-67
2021/09/25 05:04:07;;;;;;;11.40;7.70;;;18.60;82.80;;;;;;4861560;29;20037;-65
2021/09/25 05:06:33;;;;;;;8.65;7.28;;;18.50;83.10;;;;;;4860225;29;20067;-67
2021/09/25 05:08:59;;;;;;;11.88;7.00;;;18.60;83.30;;;;;;4856487;29;20046;-66
2021/09/25 05:11:25;;;;;;;10.20;6.38;;;18.60;83.60;;;;;;4861466;29;20078;-67
2021/09/25 05:13:51;;;;;;;10.70;7.45;;;18.60;83.90;;;;;;4864482;29;20825;-66
2021/09/25 05:16:17;;;;;;;12.40;7.20;;;18.50;83.50;;;;;;4854042;29;20093;-66
2021/09/25 05:18:42;;;;;;;8.98;6.70;;;18.60;83.50;;;;;;4858264;29;20040;-66
2021/09/25 05:21:08;;;;;;;15.40;9.60;;;18.60;83.60;;;;;;4854997;29;20311;-66
2021/09/25 05:23:35;;;;;;;8.95;7.40;;;18.60;83.20;;;;;;4855003;29;20037;-65
2021/09/25 05:26:01;;;;;;;10.40;8.05;;;18.60;83.30;;;;;;4868755;29;20041;-66
2021/09/25 05:28:28;;;;;;;13.85;8.43;;;18.50;83.20;;;;;;4853888;29;20045;-67
2021/09/25 05:30:54;;;;;;;13.48;9.07;;;18.50;82.80;;;;;;4855034;29;20385;-67
2021/09/25 05:33:20;;;;;;;12.93;8.45;;;18.60;83.10;;;;;;4863752;29;20040;-66
2021/09/25 05:35:46;;;;;;;11.18;7.63;;;18.50;82.80;;;;;;4864410;29;20108;-67
2021/09/25 05:38:12;;;;;;;15.60;10.25;;;18.50;83.00;;;;;;4855029;29;20039;-66
2021/09/25 05:40:38;;;;;;;10.98;8.55;;;18.50;82.80;;;;;;4865587;29;20553;-67
2021/09/25 05:43:04;;;;;;;13.35;9.80;;;18.50;82.80;;;;;;4856124;29;20041;-65
2021/09/25 05:45:29;;;;;;;11.70;8.05;;;18.60;82.90;;;;;;4862037;29;20859;-66
2021/09/25 05:47:55;;;;;;;15.15;9.95;;;18.60;83.00;;;;;;4864804;29;20041;-66
2021/09/25 05:50:21;;;;;;;14.20;8.93;;;18.60;82.80;;;;;;4856427;29;20033;-66
2021/09/25 05:52:47;;;;;;;11.82;8.30;;;18.60;82.80;;;;;;4857304;29;20444;-66
2021/09/25 05:55:13;;;;;;;13.57;9.18;;;18.60;82.70;;;;;;4861009;29;20166;-66
2021/09/25 05:57:39;;;;;;;11.95;8.73;;;18.60;83.20;;;;;;4858346;29;20045;-66
2021/09/25 06:00:06;;;;;;;12.60;7.88;;;18.60;82.80;;;;;;4854980;29;20037;-66
2021/09/25 06:02:41;;;;;;;9.73;7.93;;;18.60;82.90;;;;;;4867349;29;20105;-67
2021/09/25 06:05:09;;;;;;;8.18;7.30;;;18.70;82.80;;;;;;4867643;29;20029;-67
2021/09/25 06:07:35;;;;;;;15.25;8.93;;;18.70;82.80;;;;;;4862648;29;20054;-67
2021/09/25 06:10:01;;;;;;;13.85;8.07;;;18.70;82.90;;;;;;4863279;29;20043;-68
2021/09/25 06:12:28;;;;;;;13.65;8.35;;;18.70;82.50;;;;;;4859408;29;20041;-66
2021/09/25 06:14:53;;;;;;;10.68;8.57;;;18.70;82.50;;;;;;4858563;29;20045;-67
2021/09/25 06:17:20;;;;;;;14.15;8.73;;;18.70;82.00;;;;;;4869468;29;20173;-68
2021/09/25 06:19:46;;;;;;;10.02;8.60;;;18.70;82.30;;;;;;4863457;29;20036;-67
2021/09/25 06:22:12;;;;;;;12.30;9.38;;;18.70;82.90;;;;;;4863397;29;20477;-68
2021/09/25 06:24:37;;;;;;;10.90;8.50;;;18.60;83.20;;;;;;4865215;29;20029;-68
2021/09/25 06:27:03;;;;;;;15.02;10.82;;;18.70;83.30;;;;;;4859809;29;20052;-68
2021/09/25 06:29:29;;;;;;;12.55;10.15;;;18.80;83.20;;;;;;4863430;29;20046;-68
2021/09/25 06:31:55;;;;;;;13.63;9.73;;;18.80;82.80;;;;;;4858771;29;20137;-68
2021/09/25 06:34:22;;;;;;;12.80;9.52;;;18.80;83.20;;;;;;4865710;29;20047;-68
2021/09/25 06:36:48;;;;;;;11.98;9.20;;;18.90;82.80;;;;;;4860242;29;20049;-68
2021/09/25 06:39:15;;;;;;;13.00;8.82;;;19.00;83.10;;;;;;4867332;29;20037;-68
2021/09/25 06:41:40;;;;;;;21.90;11.13;;;19.00;82.50;;;;;;4857631;29;20498;-68
2021/09/25 06:44:07;;;;;;;14.15;9.30;;;19.20;81.80;;;;;;4867044;29;20112;-68
2021/09/25 06:46:33;;;;;;;9.45;8.25;;;19.20;81.40;;;;;;4863846;29;20039;-73
2021/09/25 06:48:58;;;;;;;11.13;9.05;;;19.30;81.50;;;;;;4859335;29;20060;-67
2021/09/25 06:51:24;;;;;;;12.13;10.07;;;19.40;81.40;;;;;;4858372;29;20126;-66
2021/09/25 06:53:50;;;;;;;9.15;8.02;;;19.40;80.60;;;;;;4853249;29;20645;-66
2021/09/25 06:56:16;;;;;;;10.65;8.43;;;19.50;80.80;;;;;;4867168;29;20040;-66
2021/09/25 06:58:41;;;;;;;12.20;9.40;;;19.50;80.60;;;;;;4855934;29;20099;-67
2021/09/25 07:01:07;;;;;;;12.98;8.88;;;19.60;79.90;;;;;;4867025;29;20032;-68
2021/09/25 07:03:33;;;;;;;11.95;9.40;;;19.60;79.60;;;;;;4874727;29;20037;-68
2021/09/25 07:05:59;;;;;;;13.35;9.98;;;19.70;79.50;;;;;;4861175;29;20056;-68
2021/09/25 07:08:24;;;;;;;12.13;9.13;;;19.80;79.20;;;;;;4861354;29;20492;-67
2021/09/25 07:10:50;;;;;;;14.43;10.55;;;19.80;79.30;;;;;;4858929;29;20823;-67
2021/09/25 07:13:17;;;;;;;18.58;10.13;;;19.80;78.60;;;;;;4862145;29;20060;-67
2021/09/25 07:15:43;;;;;;;13.50;10.05;;;19.80;79.00;;;;;;4860098;29;20044;-69
2021/09/25 07:18:10;;;;;;;10.70;9.35;;;19.70;79.40;;;;;;4857351;29;20077;-68
2021/09/25 07:20:36;;;;;;;12.02;10.23;;;19.70;79.70;;;;;;4857873;29;20809;-68
2021/09/25 07:23:01;;;;;;;13.27;10.10;;;19.80;79.40;;;;;;4858216;29;20069;-67
2021/09/25 07:25:28;;;;;;;14.00;10.93;;;19.80;79.30;;;;;;4861308;29;20198;-68
2021/09/25 07:27:55;;;;;;;11.93;9.25;;;19.80;79.60;;;;;;4859579;29;20045;-67
2021/09/25 07:30:21;;;;;;;13.48;10.70;;;19.80;79.80;;;;;;4859369;29;20067;-68
2021/09/25 07:32:47;;;;;;;11.63;8.82;;;19.90;79.20;;;;;;4875511;29;20041;-68
2021/09/25 07:35:14;;;;;;;13.65;10.40;;;19.90;78.60;;;;;;4855882;29;20029;-67
2021/09/25 07:37:41;;;;;;;14.57;9.38;;;20.00;78.60;;;;;;4865473;29;20041;-65
2021/09/25 07:40:08;;;;;;;12.73;10.82;;;20.00;78.40;;;;;;4877585;29;20116;-67
2021/09/25 07:42:34;;;;;;;10.05;9.05;;;20.00;78.00;;;;;;4865502;29;20037;-68
2021/09/25 07:45:00;;;;;;;14.20;10.77;;;20.00;78.80;;;;;;4858152;29;20426;-68
2021/09/25 07:47:26;;;;;;;12.63;9.60;;;20.10;78.40;;;;;;4856373;29;20056;-68
2021/09/25 07:49:52;;;;;;;13.50;10.13;;;20.00;78.10;;;;;;4858669;29;20033;-67
2021/09/25 07:52:18;;;;;;;15.80;10.48;;;19.90;78.80;;;;;;4853654;29;20092;-68
2021/09/25 07:54:43;;;;;;;16.25;10.32;;;19.80;79.10;;;;;;4856883;29;20452;-67
2021/09/25 07:57:10;;;;;;;15.38;11.35;;;19.80;79.30;;;;;;4858446;29;20052;-67
2021/09/25 07:59:36;;;;;;;12.45;11.15;;;19.80;79.80;;;;;;4855647;29;20047;-71
2021/09/25 08:02:01;;;;;;;17.05;11.63;;;19.80;80.20;;;;;;4858288;29;20042;-67
2021/09/25 08:04:27;;;;;;;12.82;10.95;;;19.80;80.20;;;;;;4861670;29;20862;-67
2021/09/25 08:06:53;;;;;;;12.60;10.20;;;19.80;80.20;;;;;;4859558;29;20116;-68
2021/09/25 08:09:23;;;;;;;12.43;10.63;;;19.90;80.50;;;;;;4857609;29;20045;-67
2021/09/25 08:11:50;;;;;;;12.20;10.55;;;19.90;80.10;;;;;;4857193;29;20128;-68
2021/09/25 08:14:15;;;;;;;13.45;10.32;;;20.00;79.50;;;;;;4859512;29;20375;-67
2021/09/25 08:16:41;;;;;;;12.57;11.02;;;20.10;79.60;;;;;;4863884;29;20038;-67
2021/09/25 08:19:07;;;;;;;10.45;8.48;;;20.20;79.30;;;;;;4858898;29;20041;-68
2021/09/25 08:21:33;;;;;;;12.15;10.90;;;20.20;79.40;;;;;;4862041;29;20041;-68
2021/09/25 08:23:58;;;;;;;11.93;9.05;;;20.30;78.80;;;;;;4866276;29;20036;-67
2021/09/25 08:26:24;;;;;;;11.60;10.20;;;20.30;78.60;;;;;;4867667;29;20045;-67
2021/09/25 08:28:50;;;;;;;10.70;9.60;;;20.40;78.60;;;;;;4862032;29;20041;-67
2021/09/25 08:31:16;;;;;;;10.73;9.60;;;20.50;78.00;;;;;;4864572;29;20033;-67
2021/09/25 08:33:42;;;;;;;14.70;11.55;;;20.50;77.90;;;;;;4857888;29;20029;-68
2021/09/25 08:36:08;;;;;;;9.55;8.55;;;20.60;77.50;;;;;;4865214;29;20072;-67
2021/09/25 08:38:33;;;;;;;12.40;8.75;;;20.70;77.70;;;;;;4855354;29;20140;-67
2021/09/25 08:40:59;;;;;;;13.90;9.50;;;20.70;77.80;;;;;;4856631;29;20030;-67
2021/09/25 08:43:26;;;;;;;12.23;9.68;;;20.80;77.20;;;;;;4855170;29;20041;-67
2021/09/25 08:46:00;;;;;;;13.13;10.50;;;20.90;77.40;;;;;;4857840;29;20125;-67
2021/09/25 08:48:27;;;;;;;11.88;10.18;;;21.00;76.00;;;;;;4866846;29;20044;-67
2021/09/25 08:50:54;;;;;;;10.35;8.32;;;20.90;76.20;;;;;;4859582;29;20501;-68
2021/09/25 08:53:20;;;;;;;12.07;9.02;;;20.90;77.00;;;;;;4855168;29;20128;-68
2021/09/25 08:55:46;;;;;;;9.63;8.63;;;21.10;76.90;;;;;;4859033;29;20043;-67
2021/09/25 08:58:12;;;;;;;11.68;8.05;;;21.20;76.60;;;;;;4862010;29;20520;-68
2021/09/25 09:00:44;;;;;;;12.38;8.85;;;21.30;75.60;;;;;;4858744;29;20039;-67
2021/09/25 09:03:30;;;;;;;12.07;9.18;;;21.30;75.50;;;;;;4858072;29;20051;-68
2021/09/25 09:06:11;;;;;;;9.23;8.07;;;21.30;76.20;;;;;;4858435;29;20047;-67
2021/09/25 09:08:39;;;;;;;10.65;8.45;;;21.30;75.80;;;;;;4854086;29;20043;-67
2021/09/25 09:11:06;;;;;;;12.25;9.80;;;21.20;76.20;;;;;;4856451;29;20045;-72
2021/09/25 09:13:34;;;;;;;8.60;7.72;;;21.20;75.90;;;;;;4861088;29;20047;-73
2021/09/25 09:16:03;;;;;;;9.55;7.95;;;21.20;76.20;;;;;;4862915;29;20132;-71
2021/09/25 09:18:31;;;;;;;8.35;7.47;;;21.20;76.40;;;;;;4860329;29;20140;-71
2021/09/25 09:21:08;;;;;;;11.35;7.10;;;21.20;76.40;;;;;;4864154;29;20116;-71
2021/09/25 09:23:48;;;;;;;9.98;8.40;;;21.30;76.80;;;;;;4860399;29;20034;-71
2021/09/25 09:26:34;;;;;;;11.10;9.15;;;21.30;76.50;;;;;;4859206;29;20029;-71
2021/09/25 09:29:02;;;;;;;10.77;7.45;;;21.30;76.20;;;;;;4862129;29;20037;-72
2021/09/25 09:31:28;;;;;;;8.73;7.63;;;21.20;76.30;;;;;;4859913;29;20045;-72
2021/09/25 09:34:02;;;;;;;8.95;7.57;;;21.30;76.50;;;;;;4852907;29;20040;-72
2021/09/25 09:36:29;;;;;;;9.75;7.65;;;21.30;75.80;;;;;;4860044;29;20042;-72
2021/09/25 09:39:18;;;;;;;10.82;7.95;;;21.40;76.40;;;;;;4857266;29;20465;-72
2021/09/25 09:41:52;;;;;;;8.10;6.82;;;21.50;76.10;;;;;;4861436;29;20040;-72
2021/09/25 09:44:36;;;;;;;8.20;6.68;;;21.60;75.80;;;;;;4860513;29;20538;-73
2021/09/25 09:47:08;;;;;;;10.60;7.90;;;21.60;75.40;;;;;;4865396;29;20124;-72
2021/09/25 09:49:39;;;;;;;9.88;7.75;;;21.60;75.80;;;;;;4853255;29;20097;-72
2021/09/25 09:52:09;;;;;;;8.27;6.30;;;21.70;75.70;;;;;;4862467;29;20045;-73
2021/09/25 09:54:43;;;;;;;9.68;7.38;;;21.70;75.70;;;;;;4859420;29;20049;-73
2021/09/25 09:57:16;;;;;;;10.07;6.35;;;21.70;75.20;;;;;;4853137;29;20087;-74
2021/09/25 09:59:42;;;;;;;8.15;6.68;;;21.70;75.10;;;;;;4852923;29;20149;-73
2021/09/25 10:02:09;;;;;;;7.55;6.57;;;21.70;75.50;;;;;;4859786;29;20945;-73
2021/09/25 10:04:35;;;;;;;7.45;6.43;;;21.60;75.40;;;;;;4860777;29;20121;-72
2021/09/25 10:07:01;;;;;;;10.20;7.72;;;21.50;75.40;;;;;;4856624;29;20411;-73
2021/09/25 10:09:31;;;;;;;9.25;6.85;;;21.50;76.00;;;;;;4859473;29;20074;-73
2021/09/25 10:12:08;;;;;;;11.65;8.80;;;21.50;75.70;;;;;;4866970;29;20071;-72
2021/09/25 10:14:37;;;;;;;10.63;7.95;;;21.40;76.00;;;;;;4871567;29;20041;-71
2021/09/25 10:17:05;;;;;;;13.80;10.23;;;21.30;76.30;;;;;;4860092;29;20117;-71
2021/09/25 10:19:33;;;;;;;11.18;8.63;;;21.30;76.60;;;;;;4862646;29;20120;-71
2021/09/25 10:22:16;;;;;;;11.70;9.18;;;21.30;77.20;;;;;;4857913;29;20037;-72
2021/09/25 10:24:51;;;;;;;13.43;10.30;;;21.30;77.70;;;;;;4885467;29;20119;-71
2021/09/25 10:27:18;;;;;;;11.88;9.25;;;21.20;79.40;;;;;;4855869;29;20033;-71
2021/09/25 10:29:46;;;;;;;12.15;10.27;;;21.00;80.40;;;;;;4862467;29;20053;-72
2021/09/25 10:32:43;;;;;;;17.05;10.18;;;20.90;81.00;;;;;;4859465;29;20040;-71
2021/09/25 10:35:18;;;;;;;;;;;20.90;82.30;;;;;;4850372;29;20056;-71
2021/09/25 10:37:55;;;;;;;11.43;10.18;;;21.10;81.60;;;;;;4854262;29;19926;-75
2021/09/25 10:40:24;;;;;;;11.18;9.32;;;21.30;81.50;;;;;;4855334;29;20048;-71
2021/09/25 10:42:57;;;;;;;10.55;8.13;;;21.50;80.10;;;;;;4852973;29;20085;-71
2021/09/25 10:45:37;;;;;;;12.23;7.40;;;21.80;79.40;;;;;;4863614;29;20855;-72
2021/09/25 10:48:11;;;;;;;12.07;9.82;;;22.00;78.20;;;;;;4859243;29;20033;-72
2021/09/25 10:50:38;;;;;;;20.08;14.95;;;22.20;76.90;;;;;;4855968;29;20157;-71
2021/09/25 10:53:14;;;;;;;18.02;13.82;;;22.30;76.80;;;;;;4865703;29;20059;-71
2021/09/25 10:55:40;;;;;;;;;;;22.40;76.10;;;;;;4859948;29;20049;-72
2021/09/25 10:58:21;;;;;;;;;;;22.60;74.70;;;;;;4858378;29;19920;-70
2021/09/25 11:00:47;;;;;;;13.05;9.20;;;22.60;74.40;;;;;;4859230;29;19923;-70
2021/09/25 11:06:26;;;;;;;11.00;7.85;;;22.20;75.20;;;;;;4868707;29;20533;-76
2021/09/25 11:09:05;;;;;;;11.57;8.38;;;22.30;74.80;;;;;;4862921;29;20029;-71
2021/09/25 11:12:03;;;;;;;9.13;7.95;;;22.30;74.70;;;;;;4856468;29;20069;-78
2021/09/25 11:14:41;;;;;;;9.23;6.85;;;22.20;74.80;;;;;;4866132;29;20045;-70
2021/09/25 11:17:20;;;;;;;8.38;6.93;;;22.40;74.20;;;;;;4857557;29;20041;-72
2021/09/25 11:19:53;;;;;;;10.20;8.05;;;22.50;73.90;;;;;;4871414;29;20044;-71
2021/09/25 11:22:34;;;;;;;12.52;9.10;;;22.60;72.40;;;;;;4859460;29;20045;-71
2021/09/25 11:25:06;;;;;;;8.30;7.30;;;22.60;72.60;;;;;;4871306;29;20152;-71
2021/09/25 11:27:36;;;;;;;7.85;7.05;;;22.60;73.10;;;;;;4870216;29;20612;-71
2021/09/25 11:30:12;;;;;;;8.68;7.22;;;22.70;72.80;;;;;;4858184;29;20045;-72
2021/09/25 11:32:43;;;;;;;10.05;6.88;;;22.70;73.20;;;;;;4856354;29;20045;-72
2021/09/25 11:35:17;;;;;;;8.57;6.97;;;22.80;73.20;;;;;;4873501;29;20427;-72
2021/09/25 11:37:51;;;;;;;10.13;7.25;;;22.80;72.40;;;;;;4856872;29;20165;-72
2021/09/25 11:40:18;;;;;;;7.18;6.47;;;22.60;72.90;;;;;;4857660;29;20033;-71
2021/09/25 11:42:44;;;;;;;8.25;6.40;;;22.50;73.30;;;;;;4857443;29;20037;-72
2021/09/25 11:45:12;;;;;;;8.57;6.75;;;22.40;73.20;;;;;;4856154;29;20048;-71
2021/09/25 11:47:44;;;;;;;7.45;6.72;;;22.60;73.60;;;;;;4865455;29;20041;-71
2021/09/25 11:50:21;;;;;;;10.38;6.65;;;22.50;72.20;;;;;;4855534;29;20504;-71
2021/09/25 11:52:55;;;;;;;7.18;6.32;;;22.70;72.20;;;;;;4858224;29;20051;-72
2021/09/25 11:55:24;;;;;;;8.20;6.63;;;22.80;71.80;;;;;;4856191;29;20321;-72
2021/09/25 11:57:56;;;;;;;6.95;5.63;;;22.80;71.90;;;;;;4856883;29;20037;-72
2021/09/25 12:00:28;;;;;;;8.60;5.85;;;22.90;71.80;;;;;;4858996;29;20809;-71
2021/09/25 12:02:55;;;;;;;8.40;6.18;;;23.00;71.60;;;;;;4854507;29;20048;-71
2021/09/25 12:05:33;;;;;;;7.00;5.80;;;23.00;70.90;;;;;;4858201;29;20056;-71
2021/09/25 12:08:04;;;;;;;5.90;5.30;;;23.20;70.60;;;;;;4858495;29;20072;-71
2021/09/25 12:10:33;;;;;;;7.65;5.97;;;23.30;70.10;;;;;;4869134;29;20486;-70
2021/09/25 12:13:12;;;;;;;6.57;5.88;;;23.40;70.10;;;;;;4858867;29;20037;-70
2021/09/25 12:15:41;;;;;;;5.55;5.05;;;23.50;69.70;;;;;;4856661;29;20058;-70
2021/09/25 12:18:18;;;;;;;9.43;6.30;;;23.70;69.70;;;;;;4856466;29;20128;-70
2021/09/25 12:20:49;;;;;;;7.95;6.15;;;23.70;68.50;;;;;;4859329;29;20048;-71
2021/09/25 12:23:19;;;;;;;9.48;6.28;;;23.60;68.20;;;;;;4857409;29;20068;-70
2021/09/25 12:25:45;;;;;;;14.05;9.20;;;23.60;69.00;;;;;;4855686;29;20552;-70
2021/09/25 12:28:33;;;;;;;7.68;6.13;;;23.60;68.90;;;;;;4869166;29;20410;-71
2021/09/25 12:31:09;;;;;;;7.60;6.03;;;23.60;68.70;;;;;;4856759;29;20060;-70
2021/09/25 12:33:36;;;;;;;6.13;5.53;;;23.50;68.70;;;;;;4856132;29;20064;-70
2021/09/25 12:36:10;;;;;;;8.57;5.78;;;23.50;68.90;;;;;;4857169;29;20201;-70
2021/09/25 12:38:40;;;;;;;8.75;5.90;;;23.50;68.70;;;;;;4860828;29;20049;-70
2021/09/25 12:41:11;;;;;;;10.52;5.43;;;23.50;68.70;;;;;;4862923;29;20044;-71
2021/09/25 12:43:52;;;;;;;7.45;4.60;;;23.50;69.40;;;;;;4854397;29;20522;-70
2021/09/25 12:46:27;;;;;;;6.20;4.60;;;23.50;69.80;;;;;;4856047;29;20562;-70